Terminal Aerodrome Forecast
Issued by NWS Omaha/Valley, NE

Home | Current Version | Previous Version | Text Only | Print | Product List | Glossary On
Versions: 1 2 3 4 5 6 7 8 9 10 11 12 13 14 15 16 17 18 19 20
000
FTUS43 KOAX 040532
TAFOMA
TAF
KOMA 040532Z 0406/0506 VRB03KT 1SM -SN BR OVC005
     FM041000 21005KT 1/2SM FG OVC003
     FM041600 26006KT 3SM BR BKN010
     FM041800 26006KT P6SM SCT015
     FM050500 18004KT P6SM FEW110=

USA.gov is the U.S. government's official web portal to all federal, state and local government web resources and services.